Time;durP1;ratioP1;P1;durP2;ratioP2;P2;SDS_P1;SDS_P2;PMS_P1;PMS_P2;Temp;Humidity;BMP_temperature;BMP_pressure;BME280_temperature;BME280_humidity;BME280_pressure;Samples;Min_cycle;Max_cycle;Signal;HPM_P1;HPM_P2
2022/07/24 00:03:24;;;;;;;14.70;13.40;;;;;;;19.24;78.99;99569.07;432094;1270;141597;-70
2022/07/24 00:13:34;;;;;;;12.90;11.60;;;;;;;19.15;78.83;99582.24;430880;1271;142431;-71
2022/07/24 00:23:41;;;;;;;11.00;9.90;;;;;;;19.06;78.23;99594.69;431989;1271;144253;-73
2022/07/24 00:33:48;;;;;;;10.50;9.60;;;;;;;18.93;78.00;99601.03;432038;1270;142559;-71
2022/07/24 00:44:09;;;;;;;9.90;9.00;;;;;;;18.76;77.88;99610.32;431603;1270;142707;-72
2022/07/24 00:54:16;;;;;;;10.00;9.00;;;;;;;18.67;77.52;99613.79;431962;1270;141576;-72
2022/07/24 01:04:23;;;;;;;9.70;8.40;;;;;;;18.44;77.24;99621.00;431691;1270;144229;-70
2022/07/24 01:14:32;;;;;;;11.50;8.30;;;;;;;18.26;77.28;99628.39;431206;1271;142543;-70
2022/07/24 01:24:37;;;;;;;9.80;8.70;;;;;;;18.14;77.14;99632.17;431408;1273;142969;-70
2022/07/24 01:34:44;;;;;;;9.70;8.40;;;;;;;17.84;77.20;99635.68;430742;1271;146141;-69
2022/07/24 01:44:49;;;;;;;9.30;8.50;;;;;;;17.51;77.69;99641.01;431672;1269;142753;-71
2022/07/24 01:54:55;;;;;;;9.80;8.00;;;;;;;17.22;78.15;99642.41;431351;1270;142443;-69
2022/07/24 02:05:01;;;;;;;8.70;7.90;;;;;;;16.98;78.60;99640.48;430867;1270;142094;-70
2022/07/24 02:15:09;;;;;;;8.60;7.70;;;;;;;16.75;79.12;99629.73;431584;1270;141481;-70
2022/07/24 02:25:15;;;;;;;11.30;8.30;;;;;;;16.56;79.38;99629.45;431848;1270;142387;-70
2022/07/24 02:35:20;;;;;;;7.70;6.80;;;;;;;16.37;79.81;99629.27;430882;1271;142376;-73
2022/07/24 02:45:26;;;;;;;10.80;9.40;;;;;;;16.20;80.04;99627.52;432409;1270;142569;-70
2022/07/24 02:55:32;;;;;;;9.90;9.00;;;;;;;16.03;80.48;99631.05;430691;1270;141920;-70
2022/07/24 03:05:38;;;;;;;9.20;8.20;;;;;;;15.92;80.94;99628.48;432300;1270;142999;-70
2022/07/24 03:15:44;;;;;;;9.90;8.60;;;;;;;15.86;81.27;99638.48;431664;1271;141537;-70
2022/07/24 03:25:52;;;;;;;9.80;8.70;;;;;;;16.05;81.37;99651.23;431080;1271;145337;-70
2022/07/24 03:35:58;;;;;;;8.70;7.80;;;;;;;16.19;80.91;99667.71;431930;1268;142285;-71
2022/07/24 03:46:04;;;;;;;8.10;7.00;;;;;;;16.27;80.50;99675.79;431827;1270;142931;-71
2022/07/24 03:56:11;;;;;;;7.20;6.50;;;;;;;16.41;79.78;99679.34;431354;1270;142336;-71
2022/07/24 04:06:17;;;;;;;8.20;6.10;;;;;;;16.65;79.06;99683.11;431672;1270;142075;-67
2022/07/24 04:16:23;;;;;;;6.60;6.00;;;;;;;17.20;78.48;99692.58;431747;1270;141515;-71
2022/07/24 04:26:29;;;;;;;5.40;4.90;;;;;;;22.49;74.74;99696.52;431824;1270;141891;-69
2022/07/24 04:36:35;;;;;;;6.20;4.50;;;;;;;25.47;66.22;99707.84;431720;1270;142911;-71
2022/07/24 04:46:41;;;;;;;3.80;3.50;;;;;;;26.02;59.91;99708.47;430841;1271;143605;-71
2022/07/24 04:56:47;;;;;;;5.00;3.70;;;;;;;24.08;59.53;99714.95;431278;1270;142445;-69
2022/07/24 05:06:53;;;;;;;3.50;3.20;;;;;;;23.49;59.06;99713.05;431310;1271;141511;-71
2022/07/24 05:16:59;;;;;;;3.30;2.50;;;;;;;29.07;52.95;99716.53;431099;1270;141876;-69
2022/07/24 05:27:05;;;;;;;2.20;2.00;;;;;;;28.39;47.87;99726.95;431363;1270;143679;-68
2022/07/24 05:37:17;;;;;;;1.80;1.70;;;;;;;31.68;45.04;99734.14;431417;1270;144066;-67
2022/07/24 05:47:23;;;;;;;2.10;0.90;;;;;;;35.64;38.46;99723.65;430729;1271;141895;-69
2022/07/24 05:57:30;;;;;;;1.30;0.90;;;;;;;38.52;33.62;99728.55;431506;1271;147159;-70
2022/07/24 06:07:36;;;;;;;1.70;1.30;;;;;;;38.66;29.75;99735.88;430519;1271;146707;-72
2022/07/24 06:17:44;;;;;;;1.50;0.90;;;;;;;39.18;28.04;99739.27;431656;1271;142609;-71
2022/07/24 06:27:53;;;;;;;2.80;1.40;;;;;;;40.70;25.97;99744.27;432224;1270;142259;-71
2022/07/24 06:37:59;;;;;;;2.20;1.00;;;;;;;42.73;23.65;99742.38;430886;1270;142756;-70
2022/07/24 06:48:06;;;;;;;1.40;1.00;;;;;;;43.26;22.19;99747.51;432245;1271;141484;-71
2022/07/24 06:58:12;;;;;;;2.50;1.00;;;;;;;43.48;21.05;99748.04;431883;1270;142270;-70
2022/07/24 07:08:18;;;;;;;0.90;0.80;;;;;;;43.71;19.78;99752.96;431218;1272;143692;-70
2022/07/24 07:18:24;;;;;;;1.20;0.90;;;;;;;43.22;19.07;99751.45;431887;1270;141656;-71
2022/07/24 07:28:30;;;;;;;1.50;0.90;;;;;;;42.84;18.77;99749.76;431051;1270;142212;-69
2022/07/24 07:38:37;;;;;;;1.70;1.50;;;;;;;43.64;18.41;99748.95;433030;1270;141165;-70
2022/07/24 07:48:43;;;;;;;1.50;1.30;;;;;;;43.23;18.22;99755.52;431477;1270;141641;-71
2022/07/24 07:58:49;;;;;;;1.40;1.10;;;;;;;43.84;17.63;99760.71;430502;1270;142517;-71
2022/07/24 08:08:55;;;;;;;0.50;0.50;;;;;;;41.63;17.20;99762.62;431138;1270;141680;-72
2022/07/24 08:19:01;;;;;;;2.90;0.60;;;;;;;33.18;22.28;99769.11;431963;1270;141894;-71
2022/07/24 08:29:07;;;;;;;3.00;0.50;;;;;;;28.91;27.13;99782.18;430646;1270;143005;-71
2022/07/24 08:39:12;;;;;;;;;;;;;;;27.31;29.44;99795.22;431349;1270;143451;-71
2022/07/24 08:49:22;;;;;;;4.30;0.50;;;;;;;26.11;31.56;99797.35;431925;1270;128428;-70
2022/07/24 08:59:28;;;;;;;0.60;0.50;;;;;;;26.47;32.17;99801.44;430510;1273;141920;-70
2022/07/24 09:09:33;;;;;;;0.50;0.50;;;;;;;26.65;32.05;99803.30;431949;1270;145155;-72
2022/07/24 09:19:57;;;;;;;1.10;0.70;;;;;;;26.56;32.36;99802.33;431706;1271;141027;-71
2022/07/24 09:30:03;;;;;;;0.70;0.40;;;;;;;26.15;32.92;99814.92;431478;1270;142284;-72
2022/07/24 09:40:18;;;;;;;1.70;0.60;;;;;;;26.30;32.84;99811.82;431613;1270;140737;-73
2022/07/24 09:50:29;;;;;;;;;;;;;;;25.29;34.17;99806.70;430846;1269;142225;-69
2022/07/24 10:00:37;;;;;;;2.40;0.60;;;;;;;25.15;35.02;99811.96;432335;1270;128233;-72
2022/07/24 10:10:44;;;;;;;0.80;0.70;;;;;;;24.94;35.30;99814.99;431377;1270;142324;-71
2022/07/24 10:21:10;;;;;;;0.80;0.80;;;;;;;24.70;35.83;99816.83;431928;1269;141598;-73
2022/07/24 10:31:16;;;;;;;2.50;0.60;;;;;;;24.66;35.79;99812.02;431439;1270;141501;-72
2022/07/24 10:41:26;;;;;;;1.30;0.60;;;;;;;24.65;36.68;99819.89;431403;1270;142511;-71
2022/07/24 10:51:32;;;;;;;3.00;1.00;;;;;;;24.65;36.44;99812.30;441872;1269;142319;-71
2022/07/24 11:01:42;;;;;;;2.30;1.00;;;;;;;24.72;36.61;99811.65;430146;1270;146608;-72
2022/07/24 11:12:06;;;;;;;1.40;0.80;;;;;;;24.58;36.64;99806.13;431968;1269;141675;-71
2022/07/24 11:22:17;;;;;;;1.20;0.50;;;;;;;24.73;36.58;99804.65;431035;1270;141706;-70
2022/07/24 11:32:22;;;;;;;2.50;0.80;;;;;;;24.74;36.35;99806.19;431189;1270;346156;-70
2022/07/24 11:42:28;;;;;;;1.30;0.60;;;;;;;24.63;36.56;99808.52;432046;1270;140457;-69
2022/07/24 11:52:36;;;;;;;1.80;1.00;;;;;;;24.39;36.86;99803.75;431768;1270;142043;-70
2022/07/24 12:02:46;;;;;;;0.60;0.50;;;;;;;24.49;37.43;99804.80;432181;1270;141885;-71
2022/07/24 12:12:54;;;;;;;0.60;0.60;;;;;;;24.83;36.84;99799.55;432453;1270;140928;-73
2022/07/24 12:23:02;;;;;;;2.40;0.60;;;;;;;24.69;37.30;99791.95;431231;1270;141687;-70
2022/07/24 12:33:09;;;;;;;0.80;0.60;;;;;;;24.69;37.21;99791.95;431527;1270;142600;-70
2022/07/24 12:43:15;;;;;;;0.80;0.80;;;;;;;24.87;37.22;99784.71;432079;1270;184376;-71
2022/07/24 12:53:21;;;;;;;2.50;0.70;;;;;;;25.17;36.75;99782.92;430589;1270;141458;-70
2022/07/24 13:03:28;;;;;;;2.10;0.60;;;;;;;24.71;36.83;99783.99;431670;1270;141900;-69
2022/07/24 13:13:34;;;;;;;1.10;1.00;;;;;;;24.40;37.57;99784.48;431306;1270;141460;-68
2022/07/24 13:23:40;;;;;;;1.50;1.00;;;;;;;24.20;37.88;99791.27;432044;1270;141349;-71
2022/07/24 13:33:46;;;;;;;0.90;0.90;;;;;;;24.59;37.93;99787.27;431641;1270;141321;-72
2022/07/24 13:43:52;;;;;;;2.00;0.70;;;;;;;24.57;37.54;99783.64;430962;1270;143512;-71
2022/07/24 13:53:59;;;;;;;1.80;1.10;;;;;;;24.60;37.88;99772.09;431585;1270;141726;-71
2022/07/24 14:04:08;;;;;;;1.10;0.70;;;;;;;24.58;37.80;99767.52;431362;1270;142313;-71
2022/07/24 14:14:33;;;;;;;1.30;0.80;;;;;;;24.41;37.71;99763.79;431914;1270;142060;-71
2022/07/24 14:24:39;;;;;;;0.60;0.60;;;;;;;24.12;38.07;99753.75;431210;1270;141106;-69
2022/07/24 14:34:45;;;;;;;0.70;0.70;;;;;;;23.89;38.50;99746.81;442211;1270;142393;-70
2022/07/24 14:44:51;;;;;;;0.80;0.80;;;;;;;23.90;38.81;99745.02;430568;1271;142418;-71
2022/07/24 14:54:59;;;;;;;1.10;0.70;;;;;;;23.88;39.03;99743.73;431638;1270;141593;-69
2022/07/24 15:05:06;;;;;;;2.30;1.10;;;;;;;23.96;39.13;99735.11;430806;1271;146078;-73
2022/07/24 15:15:12;;;;;;;2.50;1.10;;;;;;;23.83;39.23;99735.71;430932;1271;142468;-71
2022/07/24 15:25:19;;;;;;;1.10;0.70;;;;;;;23.81;39.42;99730.23;430580;1273;142575;-71
2022/07/24 15:35:25;;;;;;;2.00;1.30;;;;;;;23.86;39.35;99730.48;430234;1271;141907;-72
2022/07/24 15:45:30;;;;;;;2.20;1.30;;;;;;;23.82;39.58;99728.67;430821;1271;152621;-70
2022/07/24 15:55:38;;;;;;;1.10;0.90;;;;;;;23.74;39.97;99718.50;440048;1270;143145;-70
2022/07/24 16:05:43;;;;;;;1.50;0.70;;;;;;;23.83;39.88;99716.56;441279;1271;142000;-70
2022/07/24 16:15:49;;;;;;;1.00;0.80;;;;;;;23.70;39.94;99713.98;431032;1271;140941;-70
2022/07/24 16:25:55;;;;;;;1.70;0.80;;;;;;;23.55;40.30;99706.43;432455;1270;141668;-71
2022/07/24 16:36:01;;;;;;;1.10;0.90;;;;;;;23.41;40.59;99697.87;433140;1270;141033;-71
2022/07/24 16:46:07;;;;;;;2.20;0.90;;;;;;;23.35;41.03;99697.13;431455;1270;143246;-71
2022/07/24 16:56:13;;;;;;;2.40;1.10;;;;;;;23.16;41.06;99696.62;430852;1271;143774;-72
2022/07/24 17:06:19;;;;;;;2.10;1.40;;;;;;;23.08;41.26;99693.39;432446;1271;141433;-69
2022/07/24 17:16:25;;;;;;;1.70;0.80;;;;;;;23.36;41.35;99700.73;431781;1271;141840;-70
2022/07/24 17:26:31;;;;;;;1.40;0.90;;;;;;;24.30;40.38;99699.02;431470;1271;140880;-70
2022/07/24 17:36:37;;;;;;;2.20;1.50;;;;;;;23.16;41.82;99698.92;431257;1273;141423;-71
2022/07/24 17:46:44;;;;;;;1.30;1.20;;;;;;;22.58;43.11;99699.83;431357;1271;141228;-70
2022/07/24 17:56:50;;;;;;;2.30;1.90;;;;;;;22.13;43.93;99699.30;431954;1271;141551;-71
2022/07/24 18:06:56;;;;;;;7.30;3.30;;;;;;;21.76;45.25;99704.55;432384;1270;141814;-70
2022/07/24 18:17:07;;;;;;;3.40;1.60;;;;;;;21.44;46.18;99708.36;430619;1271;141929;-70
2022/07/24 18:27:14;;;;;;;6.00;1.90;;;;;;;20.99;47.20;99708.48;432143;1270;141651;-71
2022/07/24 18:37:19;;;;;;;3.00;2.00;;;;;;;20.57;48.12;99705.55;431801;1270;146524;-70
2022/07/24 18:47:26;;;;;;;1.80;1.70;;;;;;;20.16;49.29;99710.05;430954;1270;145003;-71
2022/07/24 18:57:31;;;;;;;3.60;1.80;;;;;;;19.84;50.07;99717.20;431207;1271;141177;-72
2022/07/24 19:07:37;;;;;;;2.10;1.70;;;;;;;19.49;50.83;99724.15;430398;1271;141612;-72
2022/07/24 19:17:43;;;;;;;1.80;1.60;;;;;;;19.20;51.77;99735.05;431178;1271;142022;-72
2022/07/24 19:27:49;;;;;;;6.80;1.70;;;;;;;18.95;52.74;99754.23;431448;1271;141482;-71
2022/07/24 19:37:55;;;;;;;2.90;1.50;;;;;;;18.74;53.29;99760.73;430655;1271;141974;-71
2022/07/24 19:48:01;;;;;;;4.20;1.80;;;;;;;18.60;53.91;99766.11;431251;1271;141759;-71
2022/07/24 19:58:07;;;;;;;6.70;1.90;;;;;;;18.44;54.42;99763.02;431530;1270;142780;-70
2022/07/24 20:08:13;;;;;;;3.00;1.70;;;;;;;18.28;55.04;99769.98;430820;1270;141626;-70
2022/07/24 20:18:19;;;;;;;3.30;2.10;;;;;;;18.15;55.53;99769.95;430780;1270;199074;-72
2022/07/24 20:28:24;;;;;;;5.10;1.80;;;;;;;17.94;56.19;99770.73;431363;1270;143178;-72
2022/07/24 20:38:30;;;;;;;5.80;2.50;;;;;;;17.74;56.64;99776.42;430094;1271;142000;-70
2022/07/24 20:48:36;;;;;;;4.40;2.30;;;;;;;17.52;57.59;99774.21;436383;1270;142270;-70
2022/07/24 20:58:42;;;;;;;5.40;3.50;;;;;;;17.21;58.56;99779.35;435497;1271;141710;-69
2022/07/24 21:08:47;;;;;;;2.80;2.50;;;;;;;16.95;59.57;99779.88;444218;1270;142642;-70
2022/07/24 21:19:01;;;;;;;5.30;4.00;;;;;;;16.72;60.52;99785.71;433680;1270;142171;-71
2022/07/24 21:29:07;;;;;;;4.20;3.80;;;;;;;16.50;61.03;99791.36;431749;1271;141350;-72
2022/07/24 21:39:13;;;;;;;6.10;4.80;;;;;;;16.27;61.69;99790.26;431812;1270;142056;-71
2022/07/24 21:49:19;;;;;;;8.60;5.80;;;;;;;16.06;62.46;99794.48;432160;1270;141551;-71
2022/07/24 21:59:25;;;;;;;5.70;5.00;;;;;;;15.82;63.11;99796.29;430911;1270;142836;-71
2022/07/24 22:09:31;;;;;;;5.90;5.00;;;;;;;15.63;63.92;99798.51;431791;1270;152447;-70
2022/07/24 22:19:37;;;;;;;5.20;4.10;;;;;;;15.74;64.47;99803.27;431421;1270;142723;-70
2022/07/24 22:29:43;;;;;;;5.20;4.10;;;;;;;16.01;64.50;99806.00;432027;1270;146520;-69
2022/07/24 22:39:51;;;;;;;5.10;3.70;;;;;;;16.30;64.36;99801.85;432017;1268;141565;-69
2022/07/24 22:49:57;;;;;;;4.90;4.10;;;;;;;16.44;64.21;99792.79;430653;1271;147459;-70
2022/07/24 23:00:07;;;;;;;8.50;3.90;;;;;;;16.51;64.11;99790.51;431579;1270;142101;-68
2022/07/24 23:10:19;;;;;;;3.80;3.50;;;;;;;16.44;63.89;99794.98;431455;1271;143488;-69
2022/07/24 23:20:25;;;;;;;4.20;3.70;;;;;;;16.29;63.79;99792.25;430871;1271;201187;-68
2022/07/24 23:30:31;;;;;;;6.80;3.40;;;;;;;16.11;64.04;99779.80;431664;1271;339477;-70
2022/07/24 23:40:37;;;;;;;3.80;3.50;;;;;;;15.93;64.38;99773.52;431550;1271;142030;-70
2022/07/24 23:50:45;;;;;;;4.50;3.80;;;;;;;15.73;64.49;99770.70;431517;1270;144190;-70
